Terminal Aerodrome Forecast
Issued by NWS

Current Version | Previous Version | Text Only | Print | Product List | Glossary On
Versions: 1 2 3 4 5 6 7 8 9 10 11 12 13 14 15 16
000
FTUS41 KALY 120500
TAFPSF
TAF
KPSF 120539Z 1206/1306 00000KT P6SM SKC
      TEMPO 1207/1211 2SM BR BKN002
     FM121100 23003KT P6SM SCT250
     FM121500 21008KT P6SM SCT080 BKN250
     FM130000 21003KT P6SM SCT050 SCT250=

USA.gov is the U.S. government's official web portal to all federal, state and local government web resources and services.